createdAt,value
2018-05-26T00:00:36.355Z,99.18
2018-05-26T00:03:06.706Z,99.58
2018-05-26T00:05:36.703Z,99.49
2018-05-26T00:08:06.434Z,99.90
2018-05-26T00:10:36.186Z,100.00
2018-05-26T00:13:12.979Z,99.80
2018-05-26T00:15:45.327Z,99.32
2018-05-26T00:18:14.924Z,99.54
2018-05-26T00:20:44.554Z,99.48
2018-05-26T00:23:15.088Z,99.66
2018-05-26T00:25:45.607Z,99.73
2018-05-26T00:28:15.128Z,99.78
2018-05-26T00:30:45.549Z,99.91
2018-05-26T00:33:15.077Z,100.00
2018-05-26T00:35:46.798Z,100.00
2018-05-26T00:38:16.932Z,99.71
2018-05-26T00:40:47.269Z,99.29
2018-05-26T00:43:17.183Z,99.30
2018-05-26T00:45:48.103Z,99.74
2018-05-26T00:48:17.745Z,99.80
2018-05-26T00:50:47.299Z,99.07
2018-05-26T00:53:16.976Z,98.86
2018-05-26T00:55:47.292Z,99.34
2018-05-26T00:58:17.541Z,99.91
2018-05-26T01:00:47.738Z,100.00
2018-05-26T01:03:20.225Z,99.85
2018-05-26T01:05:54.611Z,100.00
2018-05-26T01:08:24.179Z,100.00
2018-05-26T01:10:53.771Z,100.00
2018-05-26T01:13:24.205Z,100.00
2018-05-26T01:15:53.857Z,100.00
2018-05-26T01:18:23.451Z,100.00
2018-05-26T01:20:53.808Z,99.75
2018-05-26T01:23:23.696Z,99.06
2018-05-26T01:25:53.361Z,99.37
2018-05-26T01:28:22.993Z,99.85
2018-05-26T01:30:52.492Z,100.00
2018-05-26T01:33:22.136Z,100.00
2018-05-26T01:35:51.684Z,100.00
2018-05-26T01:38:21.915Z,100.00
2018-05-26T01:40:51.491Z,100.00
2018-05-26T01:43:21.152Z,100.00
2018-05-26T01:45:50.663Z,100.00
2018-05-26T01:48:20.356Z,100.00
2018-05-26T01:50:50.326Z,100.00
2018-05-26T01:53:20.546Z,100.00
2018-05-26T01:55:50.252Z,100.00
2018-05-26T01:58:20.126Z,100.00
2018-05-26T02:00:49.991Z,100.00
2018-05-26T02:03:20.777Z,100.00
2018-05-26T02:05:51.114Z,100.00
2018-05-26T02:08:20.955Z,100.00
2018-05-26T02:10:50.499Z,100.00
2018-05-26T02:13:20.091Z,100.00
2018-05-26T02:15:49.610Z,100.00
2018-05-26T02:18:19.979Z,100.00
2018-05-26T02:20:49.924Z,100.00
2018-05-26T02:23:19.531Z,100.00
2018-05-26T02:25:49.275Z,100.00
2018-05-26T02:28:19.945Z,100.00
2018-05-26T02:30:49.469Z,100.00
2018-05-26T02:33:19.062Z,100.00
2018-05-26T02:35:48.758Z,100.00
2018-05-26T02:38:18.617Z,100.00
2018-05-26T02:40:48.205Z,100.00
2018-05-26T02:43:17.823Z,100.00
2018-05-26T02:45:47.432Z,100.00
2018-05-26T02:48:18.668Z,100.00
2018-05-26T02:50:48.304Z,100.00
2018-05-26T02:53:18.844Z,100.00
2018-05-26T02:55:48.400Z,100.00
2018-05-26T02:58:18.131Z,100.00
2018-05-26T03:00:51.497Z,100.00
2018-05-26T03:03:21.177Z,100.00
2018-05-26T03:05:56.917Z,100.00
2018-05-26T03:08:35.077Z,100.00
2018-05-26T03:11:11.185Z,100.00
2018-05-26T03:13:46.201Z,100.00
2018-05-26T03:16:21.943Z,100.00
2018-05-26T03:18:51.502Z,100.00
2018-05-26T03:21:21.146Z,100.00
2018-05-26T03:23:50.759Z,100.00
2018-05-26T03:26:20.268Z,100.00
2018-05-26T03:28:49.775Z,100.00
2018-05-26T03:31:19.377Z,100.00
2018-05-26T03:33:49.024Z,100.00
2018-05-26T03:36:18.551Z,100.00
2018-05-26T03:38:51.688Z,100.00
2018-05-26T03:41:25.896Z,100.00
2018-05-26T03:43:55.544Z,100.00
2018-05-26T03:46:25.060Z,100.00
2018-05-26T03:48:54.741Z,100.00
2018-05-26T03:51:24.239Z,100.00
2018-05-26T03:53:53.889Z,100.00
2018-05-26T03:56:41.389Z,100.00
2018-05-26T04:02:13.063Z,100.00
2018-05-26T04:04:42.581Z,100.00
2018-05-26T04:07:13.110Z,100.00
2018-05-26T04:09:42.738Z,100.00
2018-05-26T04:12:17.814Z,100.00
2018-05-26T04:14:48.177Z,100.00
2018-05-26T04:17:17.822Z,100.00
2018-05-26T04:19:48.316Z,100.00
2018-05-26T04:22:18.391Z,100.00
2018-05-26T04:24:48.143Z,100.00
2018-05-26T04:27:17.660Z,100.00
2018-05-26T04:29:48.092Z,100.00
2018-05-26T04:32:18.493Z,97.65
2018-05-26T04:34:48.269Z,94.80
2018-05-26T04:37:17.958Z,92.01
2018-05-26T04:39:47.576Z,90.70
2018-05-26T04:42:18.277Z,89.08
2018-05-26T04:44:47.976Z,85.42
2018-05-26T04:47:17.659Z,83.79
2018-05-26T04:49:47.408Z,83.48
2018-05-26T04:52:16.909Z,84.11
2018-05-26T04:54:46.422Z,83.82
2018-05-26T04:57:16.124Z,83.07
2018-05-26T04:59:45.620Z,81.14
2018-05-26T05:02:15.137Z,78.76
2018-05-26T05:04:45.005Z,75.95
2018-05-26T05:07:15.587Z,74.56
2018-05-26T05:09:46.010Z,72.55
2018-05-26T05:12:15.795Z,71.51
2018-05-26T05:14:45.521Z,70.06
2018-05-26T05:17:16.551Z,69.44
2018-05-26T05:19:49.878Z,68.70
2018-05-26T05:22:19.591Z,68.47
2018-05-26T05:24:55.960Z,69.66
2018-05-26T05:27:26.100Z,69.98
2018-05-26T05:29:55.731Z,70.52
2018-05-26T05:32:26.144Z,69.91
2018-05-26T05:34:56.453Z,70.34
2018-05-26T05:37:26.022Z,71.35
2018-05-26T05:39:55.543Z,70.68
2018-05-26T05:42:25.396Z,70.18
2018-05-26T05:44:55.680Z,68.79
2018-05-26T05:47:25.402Z,66.90
2018-05-26T05:49:55.207Z,65.47
2018-05-26T05:52:24.695Z,62.32
2018-05-26T05:54:54.175Z,61.47
2018-05-26T05:57:23.711Z,60.19
2018-05-26T05:59:53.346Z,60.26
2018-05-26T06:02:22.872Z,58.40
2018-05-26T06:04:52.447Z,56.95
2018-05-26T06:07:22.080Z,55.27
2018-05-26T06:09:52.589Z,53.57
2018-05-26T06:12:22.176Z,53.36
2018-05-26T06:14:51.735Z,53.33
2018-05-26T06:17:21.370Z,54.35
2018-05-26T06:19:50.981Z,53.07
2018-05-26T06:22:20.485Z,50.83
2018-05-26T06:24:50.798Z,52.09
2018-05-26T06:27:21.177Z,53.86
2018-05-26T06:29:50.853Z,52.45
2018-05-26T06:32:20.865Z,52.13
2018-05-26T06:34:50.586Z,50.54
2018-05-26T06:37:20.227Z,49.03
2018-05-26T06:39:49.717Z,48.24
2018-05-26T06:42:19.461Z,47.10
2018-05-26T06:44:49.003Z,47.16
2018-05-26T06:47:18.626Z,47.55
2018-05-26T06:49:48.373Z,47.63
2018-05-26T06:52:18.078Z,47.21
2018-05-26T06:54:47.546Z,46.86
2018-05-26T06:57:17.916Z,46.37
2018-05-26T06:59:47.524Z,47.54
2018-05-26T07:02:17.023Z,47.77
2018-05-26T07:04:47.556Z,48.27
2018-05-26T07:07:17.178Z,49.46
2018-05-26T07:09:47.163Z,46.23
2018-05-26T07:12:25.761Z,46.49
2018-05-26T07:15:02.699Z,47.17
2018-05-26T07:17:32.379Z,45.26
2018-05-26T07:20:03.762Z,43.87
2018-05-26T07:22:34.753Z,44.37
2018-05-26T07:25:04.524Z,44.20
2018-05-26T07:27:34.402Z,42.17
2018-05-26T07:30:07.014Z,40.99
2018-05-26T07:32:36.684Z,41.45
2018-05-26T07:35:06.602Z,42.13
2018-05-26T07:37:36.143Z,43.44
2018-05-26T07:40:05.939Z,42.09
2018-05-26T07:42:35.544Z,46.21
2018-05-26T07:45:05.109Z,43.81
2018-05-26T07:47:35.404Z,41.92
2018-05-26T07:50:05.776Z,41.88
2018-05-26T07:52:35.482Z,40.33
2018-05-26T07:55:05.096Z,39.11
2018-05-26T07:57:34.647Z,38.32
2018-05-26T08:00:04.455Z,36.78
2018-05-26T08:02:37.282Z,36.23
2018-05-26T08:05:06.987Z,37.96
2018-05-26T08:07:36.503Z,34.96
2018-05-26T08:10:13.238Z,36.22
2018-05-26T08:12:44.050Z,33.67
2018-05-26T08:15:17.079Z,37.29
2018-05-26T08:17:47.364Z,34.86
2018-05-26T08:20:20.391Z,35.57
2018-05-26T08:22:50.692Z,36.27
2018-05-26T08:25:20.289Z,33.89
2018-05-26T08:27:49.820Z,33.88
2018-05-26T08:30:22.495Z,35.07
2018-05-26T08:32:52.052Z,35.22
2018-05-26T08:35:22.168Z,34.56
2018-05-26T08:37:51.700Z,35.78
2018-05-26T08:40:22.839Z,36.46
2018-05-26T08:42:52.623Z,34.96
2018-05-26T08:45:24.147Z,36.33
2018-05-26T08:47:55.790Z,36.28
2018-05-26T08:50:26.143Z,34.53
2018-05-26T08:52:56.196Z,35.67
2018-05-26T08:55:26.089Z,34.00
2018-05-26T08:57:56.387Z,32.40
2018-05-26T09:00:26.060Z,31.73
2018-05-26T09:02:55.534Z,31.54
2018-05-26T09:05:25.789Z,31.75
2018-05-26T09:07:55.492Z,33.78
2018-05-26T09:10:25.256Z,33.24
2018-05-26T09:12:55.772Z,32.22
2018-05-26T09:15:25.461Z,30.12
2018-05-26T09:17:55.961Z,31.52
2018-05-26T09:20:26.129Z,28.61
2018-05-26T09:22:55.632Z,28.71
2018-05-26T09:25:25.192Z,28.14
2018-05-26T09:27:54.624Z,28.79
2018-05-26T09:30:24.139Z,27.65
2018-05-26T09:32:54.659Z,30.62
2018-05-26T09:35:24.440Z,29.93
2018-05-26T09:37:54.175Z,29.23
2018-05-26T09:40:23.711Z,30.82
2018-05-26T09:42:53.288Z,31.12
2018-05-26T09:45:22.766Z,30.50
2018-05-26T09:47:53.168Z,30.22
2018-05-26T09:50:22.805Z,31.18
2018-05-26T09:52:52.291Z,31.75
2018-05-26T09:55:22.610Z,34.24
2018-05-26T09:57:53.508Z,34.65
2018-05-26T10:00:23.293Z,32.37
2018-05-26T10:02:52.840Z,32.31
2018-05-26T10:05:22.642Z,34.47
2018-05-26T10:07:52.315Z,34.55
2018-05-26T10:10:22.670Z,32.89
2018-05-26T10:12:52.396Z,32.02
2018-05-26T10:15:21.881Z,28.39
2018-05-26T10:17:51.492Z,30.66
2018-05-26T10:20:22.295Z,27.96
2018-05-26T10:22:52.590Z,27.57
2018-05-26T10:25:22.164Z,27.12
2018-05-26T10:27:51.744Z,25.71
2018-05-26T10:30:22.148Z,26.21
2018-05-26T10:32:52.443Z,27.51
2018-05-26T10:35:22.043Z,26.76
2018-05-26T10:37:51.597Z,27.45
2018-05-26T10:40:22.545Z,26.56
2018-05-26T10:42:52.088Z,26.70
2018-05-26T10:45:38.179Z,25.07
2018-05-26T10:48:07.678Z,24.57
2018-05-26T10:50:37.290Z,25.86
2018-05-26T10:53:06.760Z,25.53
2018-05-26T10:55:36.254Z,25.74
2018-05-26T10:58:05.800Z,27.34
2018-05-26T11:00:36.226Z,28.08
2018-05-26T11:03:06.434Z,24.84
2018-05-26T11:05:37.837Z,26.19
2018-05-26T11:08:07.409Z,25.59
2018-05-26T11:10:37.647Z,25.86
2018-05-26T11:13:07.470Z,24.85
2018-05-26T11:15:36.977Z,25.16
2018-05-26T11:18:06.513Z,25.12
2018-05-26T11:20:36.095Z,24.45
2018-05-26T11:23:05.818Z,23.79
2018-05-26T11:25:35.504Z,26.08
2018-05-26T11:28:05.052Z,28.16
2018-05-26T11:30:34.921Z,30.69
2018-05-26T11:33:05.134Z,26.54
2018-05-26T11:35:35.396Z,27.56
2018-05-26T11:38:05.081Z,26.45
2018-05-26T11:40:34.700Z,26.39
2018-05-26T11:43:04.548Z,28.72
2018-05-26T11:45:34.002Z,30.32
2018-05-26T11:48:19.183Z,31.65
2018-05-26T11:50:48.619Z,29.39
2018-05-26T11:53:18.545Z,30.56
2018-05-26T11:55:48.000Z,30.60
2018-05-26T11:58:17.928Z,31.07
2018-05-26T12:00:53.473Z,30.36
2018-05-26T12:03:23.619Z,32.66
2018-05-26T12:05:53.109Z,32.96
2018-05-26T12:08:23.224Z,34.05
2018-05-26T12:10:52.856Z,35.23
2018-05-26T12:13:22.338Z,37.42
2018-05-26T12:15:51.808Z,39.51
2018-05-26T12:18:22.160Z,38.54
2018-05-26T12:20:51.653Z,40.11
2018-05-26T12:23:21.885Z,39.57
2018-05-26T12:25:51.498Z,39.42
2018-05-26T12:28:20.958Z,39.64
2018-05-26T12:30:50.485Z,38.60
2018-05-26T12:33:20.849Z,40.44
2018-05-26T12:35:50.299Z,39.89
2018-05-26T12:38:19.833Z,40.63
2018-05-26T12:40:50.054Z,42.68
2018-05-26T12:43:20.418Z,38.18
2018-05-26T12:45:49.850Z,37.93
2018-05-26T12:48:19.457Z,39.30
2018-05-26T12:50:48.922Z,38.34
2018-05-26T12:53:18.580Z,39.32
2018-05-26T13:05:53.083Z,36.93
2018-05-26T13:08:55.806Z,30.57
2018-05-26T13:13:32.566Z,30.15
2018-05-26T13:16:02.815Z,29.42
2018-05-26T13:18:32.520Z,30.67
2018-05-26T13:21:02.530Z,31.07
2018-05-26T13:26:43.704Z,36.88
2018-05-26T13:29:29.723Z,41.27
2018-05-26T13:32:00.082Z,42.58
2018-05-26T13:34:29.548Z,41.41
2018-05-26T13:37:00.193Z,44.94
2018-05-26T13:39:29.831Z,42.58
2018-05-26T13:41:59.341Z,42.76
2018-05-26T13:44:29.532Z,41.11
2018-05-26T13:46:59.258Z,41.29
2018-05-26T13:49:29.926Z,43.20
2018-05-26T13:52:00.724Z,41.69
2018-05-26T13:54:34.779Z,38.81
2018-05-26T13:57:07.442Z,40.09
2018-05-26T13:59:37.116Z,38.01
2018-05-26T14:02:07.488Z,40.09
2018-05-26T14:04:38.980Z,40.74
2018-05-26T14:07:13.366Z,40.63
2018-05-26T14:10:00.412Z,43.31
2018-05-26T14:12:29.995Z,42.63
2018-05-26T14:15:00.406Z,43.91
2018-05-26T14:17:30.087Z,43.83
2018-05-26T14:19:59.907Z,44.12
2018-05-26T14:22:29.464Z,41.68
2018-05-26T14:25:00.042Z,41.13
2018-05-26T14:27:29.569Z,40.24
2018-05-26T14:30:00.475Z,40.04
2018-05-26T14:32:30.033Z,39.35
2018-05-26T14:35:02.161Z,39.96
2018-05-26T14:37:31.946Z,39.91
2018-05-26T14:40:01.940Z,40.27
2018-05-26T14:42:32.216Z,42.55
2018-05-26T14:45:02.119Z,41.36
2018-05-26T14:47:31.677Z,42.91
2018-05-26T14:50:02.642Z,43.58
2018-05-26T14:52:32.281Z,43.72
2018-05-26T14:55:02.238Z,39.20
2018-05-26T14:57:32.469Z,39.33
2018-05-26T15:00:03.227Z,39.85
2018-05-26T15:02:32.753Z,39.61
2018-05-26T15:05:02.608Z,39.10
2018-05-26T15:07:32.083Z,39.14
2018-05-26T15:10:02.146Z,38.97
2018-05-26T15:12:32.669Z,39.68
2018-05-26T15:15:02.703Z,40.37
2018-05-26T15:17:32.969Z,40.80
2018-05-26T15:20:02.881Z,39.96
2018-05-26T15:22:32.341Z,39.56
2018-05-26T15:25:02.314Z,38.40
2018-05-26T15:27:32.805Z,39.29
2018-05-26T15:30:02.810Z,39.60
2018-05-26T15:32:32.296Z,40.71
2018-05-26T15:35:02.373Z,40.51
2018-05-26T15:37:31.826Z,40.33
2018-05-26T15:40:02.083Z,41.54
2018-05-26T15:42:31.748Z,40.16
2018-05-26T15:45:01.831Z,41.15
2018-05-26T15:47:31.332Z,40.51
2018-05-26T15:50:01.259Z,40.29
2018-05-26T15:52:30.935Z,40.12
2018-05-26T15:55:01.635Z,40.27
2018-05-26T15:57:31.124Z,41.43
2018-05-26T16:00:01.011Z,41.89
2018-05-26T16:02:30.587Z,41.54
2018-05-26T16:05:00.492Z,41.72
2018-05-26T16:07:30.756Z,41.52
2018-05-26T16:10:00.773Z,41.66
2018-05-26T16:12:30.415Z,43.07
2018-05-26T16:15:00.372Z,43.52
2018-05-26T16:17:29.903Z,43.43
2018-05-26T16:19:59.857Z,42.81
2018-05-26T16:22:29.446Z,43.44
2018-05-26T16:24:58.944Z,43.26
2018-05-26T16:27:28.536Z,42.89
2018-05-26T16:29:57.993Z,42.93
2018-05-26T16:32:27.674Z,43.24
2018-05-26T16:34:57.151Z,43.97
2018-05-26T16:37:26.683Z,44.26
2018-05-26T16:39:56.405Z,44.45
2018-05-26T16:42:25.878Z,44.44
2018-05-26T16:44:55.393Z,44.83
2018-05-26T16:47:24.840Z,44.77
2018-05-26T16:56:25.287Z,45.17
2018-05-26T16:58:54.965Z,45.30
2018-05-26T17:01:26.320Z,45.20
2018-05-26T17:03:56.379Z,45.38
2018-05-26T17:07:46.674Z,45.86
2018-05-26T17:10:17.677Z,45.23
2018-05-26T17:12:47.253Z,45.87
2018-05-26T17:15:16.776Z,46.61
2018-05-26T17:17:48.169Z,47.66
2018-05-26T17:20:19.170Z,47.79
2018-05-26T17:22:48.924Z,47.80
2018-05-26T17:25:18.612Z,48.05
2018-05-26T17:27:48.212Z,48.44
2018-05-26T17:30:19.726Z,48.81
2018-05-26T17:32:49.271Z,49.60
2018-05-26T17:35:21.771Z,50.18
2018-05-26T17:37:51.379Z,50.75
2018-05-26T17:40:20.863Z,51.58
2018-05-26T17:42:50.381Z,51.68
2018-05-26T17:45:19.848Z,51.42
2018-05-26T17:47:50.185Z,52.00
2018-05-26T17:50:20.536Z,51.90
2018-05-26T17:52:51.834Z,52.37
2018-05-26T17:55:21.823Z,52.66
2018-05-26T17:57:51.296Z,53.18
2018-05-26T18:00:20.906Z,53.53
2018-05-26T18:02:50.559Z,53.87
2018-05-26T18:05:20.163Z,54.24
2018-05-26T18:07:49.728Z,54.95
2018-05-26T18:10:20.631Z,55.60
2018-05-26T18:12:50.962Z,56.03
2018-05-26T18:15:20.775Z,56.16
2018-05-26T18:17:51.262Z,56.04
2018-05-26T18:20:22.184Z,56.77
2018-05-26T18:22:51.866Z,56.40
2018-05-26T18:25:22.125Z,56.70
2018-05-26T18:27:51.595Z,57.10
2018-05-26T18:30:21.962Z,57.43
2018-05-26T18:32:51.800Z,57.51
2018-05-26T18:35:23.484Z,58.65
2018-05-26T18:37:53.970Z,59.01
2018-05-26T18:40:25.908Z,59.17
2018-05-26T18:42:55.515Z,59.32
2018-05-26T18:45:25.225Z,58.49
2018-05-26T18:47:54.828Z,58.62
2018-05-26T18:50:55.288Z,61.06
2018-05-26T18:53:30.564Z,62.01
2018-05-26T18:56:02.154Z,62.30
2018-05-26T18:58:31.661Z,62.62
2018-05-26T19:01:01.459Z,62.16
2018-05-26T19:03:31.218Z,61.61
2018-05-26T19:06:01.254Z,62.68
2018-05-26T19:08:30.727Z,61.93
2018-05-26T19:11:01.000Z,60.68
2018-05-26T19:13:32.267Z,59.77
2018-05-26T19:16:03.079Z,58.73
2018-05-26T19:18:34.809Z,58.42
2018-05-26T19:21:04.604Z,57.52
2018-05-26T19:23:34.281Z,57.80
2018-05-26T19:26:03.816Z,58.28
2018-05-26T19:28:38.428Z,59.05
2018-05-26T19:31:09.911Z,60.04
2018-05-26T19:33:39.622Z,60.47
2018-05-26T19:36:09.298Z,60.92
2018-05-26T19:38:39.183Z,61.11
2018-05-26T19:41:08.869Z,61.92
2018-05-26T19:43:38.340Z,61.63
2018-05-26T19:46:09.124Z,61.74
2018-05-26T19:48:39.379Z,62.21
2018-05-26T19:51:09.752Z,62.32
2018-05-26T19:53:39.250Z,62.13
2018-05-26T19:56:09.864Z,62.06
2018-05-26T19:58:40.181Z,61.71
2018-05-26T20:01:10.734Z,62.00
2018-05-26T20:03:40.291Z,62.04
2018-05-26T20:06:10.777Z,62.25
2018-05-26T20:08:40.466Z,62.82
2018-05-26T20:11:10.198Z,63.84
2018-05-26T20:13:39.749Z,65.49
2018-05-26T20:16:10.016Z,66.36
2018-05-26T20:18:40.573Z,66.27
2018-05-26T20:21:11.043Z,68.27
2018-05-26T20:23:40.801Z,69.14
2018-05-26T20:26:10.817Z,69.56
2018-05-26T20:28:41.433Z,70.90
2018-05-26T20:31:10.912Z,70.39
2018-05-26T20:33:41.217Z,71.44
2018-05-26T20:36:10.894Z,68.60
2018-05-26T20:38:41.631Z,71.48
2018-05-26T20:41:11.336Z,71.92
2018-05-26T20:43:40.871Z,73.44
2018-05-26T20:46:10.509Z,71.62
2018-05-26T20:48:40.752Z,73.35
2018-05-26T20:51:10.303Z,74.31
2018-05-26T20:53:44.281Z,74.05
2018-05-26T20:56:15.745Z,72.88
2018-05-26T20:58:45.498Z,72.60
2018-05-26T21:01:16.691Z,72.63
2018-05-26T21:03:47.953Z,73.65
2018-05-26T21:06:17.551Z,74.21
2018-05-26T21:08:57.841Z,74.75
2018-05-26T21:11:29.105Z,76.35
2018-05-26T21:14:00.823Z,76.40
2018-05-26T21:16:32.373Z,77.21
2018-05-26T21:19:04.042Z,78.07
2018-05-26T21:21:33.838Z,78.73
2018-05-26T21:24:03.803Z,79.70
2018-05-26T21:26:36.560Z,80.03
2018-05-26T21:29:20.374Z,79.99
2018-05-26T21:31:53.773Z,80.58
2018-05-26T21:34:23.713Z,79.77
2018-05-26T21:36:54.249Z,80.47
2018-05-26T21:39:24.959Z,81.22
2018-05-26T21:41:55.281Z,81.96
2018-05-26T21:44:24.808Z,82.39
2018-05-26T21:46:54.362Z,82.11
2018-05-26T21:49:23.868Z,82.85
2018-05-26T21:51:54.844Z,82.73
2018-05-26T21:54:24.639Z,83.09
2018-05-26T21:56:54.317Z,83.48
2018-05-26T21:59:23.911Z,83.86
2018-05-26T22:02:06.949Z,83.90
2018-05-26T22:04:38.402Z,82.71
2018-05-26T22:07:07.904Z,82.44
2018-05-26T22:09:38.497Z,82.62
2018-05-26T22:12:08.779Z,81.18
2018-05-26T22:14:38.311Z,81.63
2018-05-26T22:17:10.816Z,82.12
2018-05-26T22:19:40.617Z,81.54
2018-05-26T22:22:10.340Z,79.29
2018-05-26T22:24:40.283Z,77.95
2018-05-26T22:27:10.589Z,79.54
2018-05-26T22:29:40.882Z,80.68
2018-05-26T22:32:10.773Z,81.90
2018-05-26T22:34:41.140Z,80.76
2018-05-26T22:37:11.975Z,81.23
2018-05-26T22:39:41.442Z,82.41
2018-05-26T22:42:11.071Z,79.88
2018-05-26T22:44:40.682Z,80.29
2018-05-26T22:47:10.217Z,80.77
2018-05-26T22:49:39.997Z,81.38
2018-05-26T22:52:09.622Z,81.00
2018-05-26T22:54:39.336Z,80.95
2018-05-26T22:57:08.832Z,80.89
2018-05-26T22:59:38.386Z,79.55
2018-05-26T23:02:08.794Z,79.39
2018-05-26T23:04:38.394Z,80.47
2018-05-26T23:07:08.204Z,81.61
2018-05-26T23:09:38.316Z,83.51
2018-05-26T23:16:01.221Z,86.11
2018-05-26T23:18:32.446Z,86.54
2018-05-26T23:21:02.623Z,87.10
2018-05-26T23:23:32.157Z,86.41
2018-05-26T23:26:03.121Z,86.48
2018-05-26T23:28:34.697Z,87.25
2018-05-26T23:31:08.691Z,88.31
2018-05-26T23:33:45.717Z,90.33
2018-05-26T23:36:16.144Z,89.79
2018-05-26T23:38:45.860Z,90.09
2018-05-26T23:41:15.495Z,90.59
2018-05-26T23:43:46.341Z,90.18
2018-05-26T23:46:15.923Z,90.28
2018-05-26T23:48:45.715Z,90.66
2018-05-26T23:51:15.324Z,90.92
2018-05-26T23:53:44.929Z,90.99
2018-05-26T23:56:16.343Z,93.14
2018-05-26T23:58:47.585Z,91.03
